Time;durP1;ratioP1;P1;durP2;ratioP2;P2;SDS_P1;SDS_P2;PMS_P1;PMS_P2;Temp;Humidity;BMP_temperature;BMP_pressure;BME280_temperature;BME280_humidity;BME280_pressure;Samples;Min_cycle;Max_cycle;Signal;HPM_P1;HPM_P2
2023/04/08 00:01:07;;;;;;;4.50;3.87;;;;;;;;;;5053802;28;20241;-85
2023/04/08 00:03:34;;;;;;;3.90;3.60;;;;;;;;;;5054295;28;20233;-85
2023/04/08 00:06:03;;;;;;;4.00;3.70;;;;;;;;;;5054015;28;20237;-85
2023/04/08 00:08:30;;;;;;;3.90;3.60;;;;;;;;;;5054478;28;20206;-85
2023/04/08 00:10:57;;;;;;;4.33;3.80;;;;;;;;;;5053127;28;20229;-85
2023/04/08 00:13:25;;;;;;;4.57;4.17;;;;;;;;;;5053828;28;20710;-85
2023/04/08 00:15:53;;;;;;;4.57;4.17;;;;;;;;;;5053562;28;20692;-85
2023/04/08 00:18:20;;;;;;;4.20;3.80;;;;;;;;;;5053991;28;20213;-85
2023/04/08 00:20:47;;;;;;;5.77;4.00;;;;;;;;;;5053626;28;20213;-85
2023/04/08 00:23:14;;;;;;;3.83;3.53;;;;;;;;;;5038124;28;20231;-85
2023/04/08 00:25:41;;;;;;;4.43;4.03;;;;;;;;;;5018170;28;20200;-85
2023/04/08 00:28:08;;;;;;;4.30;4.00;;;;;;;;;;5014250;28;20215;-85
2023/04/08 00:30:36;;;;;;;4.13;3.83;;;;;;;;;;5015921;28;20495;-84
2023/04/08 00:33:04;;;;;;;4.60;4.20;;;;;;;;;;5032892;28;20605;-85
2023/04/08 00:35:31;;;;;;;4.03;3.63;;;;;;;;;;5033723;28;20222;-85
2023/04/08 00:37:58;;;;;;;4.10;3.70;;;;;;;;;;5033282;28;20242;-85
2023/04/08 00:40:25;;;;;;;4.20;3.80;;;;;;;;;;5033891;28;20211;-85
2023/04/08 00:42:52;;;;;;;4.30;3.90;;;;;;;;;;5032699;28;20230;-85
2023/04/08 00:45:19;;;;;;;4.53;4.10;;;;;;;;;;5033500;28;20667;-85
2023/04/08 00:47:51;;;;;;;3.80;3.50;;;;;;;;;;5033035;28;20237;-85
2023/04/08 00:50:19;;;;;;;4.60;4.00;;;;;;;;;;5033818;28;20199;-85
2023/04/08 00:52:47;;;;;;;4.07;3.67;;;;;;;;;;5031830;28;20598;-85
2023/04/08 00:55:17;;;;;;;4.83;4.10;;;;;;;;;;5033021;28;20715;-85
2023/04/08 00:57:44;;;;;;;4.63;4.30;;;;;;;;;;5032582;28;20616;-85
2023/04/08 01:00:12;;;;;;;4.23;3.93;;;;;;;;;;5032942;28;20223;-85
2023/04/08 01:02:43;;;;;;;4.27;3.90;;;;;;;;;;5030132;28;20317;-85
2023/04/08 01:05:14;;;;;;;4.17;3.83;;;;;;;;;;5068439;22;20282;-86
2023/04/08 01:07:47;;;;;;;4.30;3.90;;;;;;;;;;5015026;28;20235;-86
2023/04/08 01:10:16;;;;;;;4.97;4.33;;;;;;;;;;5015256;28;20196;-86
2023/04/08 01:12:44;;;;;;;4.70;4.20;;;;;;;;;;5031884;28;20690;-87
2023/04/08 01:15:12;;;;;;;4.20;3.90;;;;;;;;;;5034595;28;20219;-86
2023/04/08 01:17:40;;;;;;;4.43;4.03;;;;;;;;;;5034038;28;20241;-86
2023/04/08 01:20:08;;;;;;;4.00;3.70;;;;;;;;;;5034719;28;20576;-86
2023/04/08 01:22:40;;;;;;;4.47;3.93;;;;;;;;;;5033121;28;20726;-86
2023/04/08 01:25:11;;;;;;;5.97;4.30;;;;;;;;;;5014773;28;20412;-86
2023/04/08 01:27:40;;;;;;;4.50;4.13;;;;;;;;;;5032954;28;20599;-86
2023/04/08 01:30:08;;;;;;;4.90;4.40;;;;;;;;;;5035320;28;20214;-86
2023/04/08 01:32:36;;;;;;;4.70;4.30;;;;;;;;;;5033808;28;20229;-87
2023/04/08 01:35:03;;;;;;;5.60;4.47;;;;;;;;;;5034456;28;20707;-86
2023/04/08 01:37:31;;;;;;;5.90;4.53;;;;;;;;;;5034676;28;20237;-87
2023/04/08 01:39:59;;;;;;;4.70;4.30;;;;;;;;;;5034545;28;20214;-86
2023/04/08 01:42:28;;;;;;;4.50;4.10;;;;;;;;;;5033989;28;20594;-86
2023/04/08 01:44:58;;;;;;;5.30;3.93;;;;;;;;;;5035477;28;20234;-87
2023/04/08 01:47:26;;;;;;;4.67;4.23;;;;;;;;;;5033856;28;20226;-87
2023/04/08 01:50:00;;;;;;;3.40;3.20;;;;;;;;;;5034842;28;20268;-86
2023/04/08 01:52:29;;;;;;;5.10;4.00;;;;;;;;;;5033861;28;20237;-86
2023/04/08 01:54:56;;;;;;;4.30;3.70;;;;;;;;;;5034193;28;20431;-85
2023/04/08 01:57:24;;;;;;;4.07;3.67;;;;;;;;;;5033375;28;20737;-86
2023/04/08 01:59:53;;;;;;;4.10;3.80;;;;;;;;;;5033834;28;20202;-86
2023/04/08 02:02:22;;;;;;;3.60;3.30;;;;;;;;;;5032818;28;20227;-87
2023/04/08 02:04:49;;;;;;;4.53;4.20;;;;;;;;;;5033694;28;20237;-87
2023/04/08 02:07:17;;;;;;;4.53;4.13;;;;;;;;;;5033363;28;20234;-86
2023/04/08 02:09:44;;;;;;;4.43;4.03;;;;;;;;;;5034356;28;20210;-86
2023/04/08 02:12:11;;;;;;;3.80;3.50;;;;;;;;;;5032552;28;20231;-87
2023/04/08 02:14:39;;;;;;;4.17;3.50;;;;;;;;;;5033614;28;20226;-86
2023/04/08 02:17:09;;;;;;;3.77;3.47;;;;;;;;;;5033339;28;20768;-87
2023/04/08 02:19:42;;;;;;;4.20;3.90;;;;;;;;;;5034252;28;20286;-87
2023/04/08 02:22:12;;;;;;;4.07;3.67;;;;;;;;;;5032901;28;20234;-86
2023/04/08 02:24:39;;;;;;;4.30;3.90;;;;;;;;;;5033529;28;20717;-86
2023/04/08 02:27:08;;;;;;;3.50;3.20;;;;;;;;;;5033226;28;20245;-86
2023/04/08 02:29:36;;;;;;;4.27;3.97;;;;;;;;;;5034021;28;20199;-86
2023/04/08 02:32:04;;;;;;;4.90;4.40;;;;;;;;;;5032753;28;20293;-87
2023/04/08 02:34:32;;;;;;;4.90;4.50;;;;;;;;;;5039225;28;20273;-86
2023/04/08 02:37:00;;;;;;;5.03;4.47;;;;;;;;;;5039466;28;20602;-87
2023/04/08 02:39:37;;;;;;;6.23;5.20;;;;;;;;;;5040032;28;20210;-87
2023/04/08 02:42:04;;;;;;;5.33;4.83;;;;;;;;;;5039474;28;20241;-86
2023/04/08 02:44:31;;;;;;;5.37;4.83;;;;;;;;;;5040546;28;20215;-86
2023/04/08 02:46:59;;;;;;;5.93;4.97;;;;;;;;;;5039672;28;20636;-86
2023/04/08 02:49:26;;;;;;;6.97;5.00;;;;;;;;;;5040319;28;20206;-86
2023/04/08 02:51:53;;;;;;;5.57;4.97;;;;;;;;;;5039185;28;20260;-87
2023/04/08 02:54:21;;;;;;;5.70;5.17;;;;;;;;;;5040414;28;20229;-86
2023/04/08 02:56:48;;;;;;;6.37;5.77;;;;;;;;;;5039771;28;20565;-87
2023/04/08 02:59:15;;;;;;;6.93;5.47;;;;;;;;;;5040453;28;20202;-86
2023/04/08 03:01:43;;;;;;;5.77;5.17;;;;;;;;;;5039224;28;20233;-86
2023/04/08 03:04:10;;;;;;;5.50;5.00;;;;;;;;;;5040444;28;20245;-86
2023/04/08 03:06:37;;;;;;;7.63;5.40;;;;;;;;;;5019741;28;20762;-87
2023/04/08 03:09:04;;;;;;;5.80;5.20;;;;;;;;;;5019948;28;20682;-86
2023/04/08 03:11:33;;;;;;;5.80;5.20;;;;;;;;;;5019541;28;20254;-87
2023/04/08 03:14:00;;;;;;;5.67;4.80;;;;;;;;;;5019893;28;20231;-86
2023/04/08 03:16:27;;;;;;;5.90;5.33;;;;;;;;;;5019609;28;20241;-86
2023/04/08 03:18:54;;;;;;;6.10;5.50;;;;;;;;;;5020075;28;20199;-86
2023/04/08 03:21:21;;;;;;;6.90;5.60;;;;;;;;;;5025551;28;20227;-87
2023/04/08 03:23:48;;;;;;;7.13;6.40;;;;;;;;;;5039619;28;20219;-86
2023/04/08 03:26:15;;;;;;;7.57;6.77;;;;;;;;;;5038728;28;20250;-86
2023/04/08 03:28:44;;;;;;;7.77;6.73;;;;;;;;;;5032257;28;20205;-87
2023/04/08 03:31:11;;;;;;;10.37;8.37;;;;;;;;;;5038808;28;20231;-86
2023/04/08 03:33:38;;;;;;;8.17;7.37;;;;;;;;;;5039621;28;20226;-86
2023/04/08 03:36:06;;;;;;;8.07;7.27;;;;;;;;;;5039023;28;20234;-86
2023/04/08 03:38:33;;;;;;;10.17;8.07;;;;;;;;;;5039434;28;20237;-86
2023/04/08 03:41:00;;;;;;;9.20;8.13;;;;;;;;;;5039265;28;20609;-86
2023/04/08 03:43:27;;;;;;;10.33;7.90;;;;;;;;;;5039270;28;20207;-86
2023/04/08 03:45:56;;;;;;;10.70;7.70;;;;;;;;;;5035883;28;20233;-86
2023/04/08 03:48:23;;;;;;;9.23;7.87;;;;;;;;;;5036146;28;20207;-87
2023/04/08 03:50:50;;;;;;;9.30;8.17;;;;;;;;;;5035608;28;20206;-86
2023/04/08 03:53:17;;;;;;;9.73;8.00;;;;;;;;;;5034224;28;20222;-86
2023/04/08 03:55:44;;;;;;;9.10;8.03;;;;;;;;;;5036090;28;20281;-87
2023/04/08 03:58:11;;;;;;;9.70;8.20;;;;;;;;;;5043232;28;20195;-86
2023/04/08 04:00:38;;;;;;;9.30;7.83;;;;;;;;;;5034981;28;20200;-87
2023/04/08 04:03:07;;;;;;;8.80;7.87;;;;;;;;;;5035364;28;20707;-86
2023/04/08 04:05:34;;;;;;;8.50;7.40;;;;;;;;;;5035220;28;20744;-85
2023/04/08 04:08:01;;;;;;;10.13;8.10;;;;;;;;;;5034912;28;20235;-86
2023/04/08 04:10:28;;;;;;;9.83;8.83;;;;;;;;;;5035627;28;20211;-86
2023/04/08 04:12:55;;;;;;;10.17;8.73;;;;;;;;;;5034655;28;20230;-86
2023/04/08 04:15:22;;;;;;;10.40;8.50;;;;;;;;;;5035691;28;20268;-86
2023/04/08 04:17:50;;;;;;;9.63;8.17;;;;;;;;;;5034820;28;20706;-85
2023/04/08 04:20:20;;;;;;;9.70;8.70;;;;;;;;;;5035297;28;20199;-86
2023/04/08 04:22:47;;;;;;;9.83;8.23;;;;;;;;;;5034630;28;20222;-85
2023/04/08 04:25:14;;;;;;;9.53;8.17;;;;;;;;;;5035097;28;20687;-86
2023/04/08 04:27:41;;;;;;;10.20;9.13;;;;;;;;;;5034850;28;20239;-86
2023/04/08 04:30:09;;;;;;;9.37;8.40;;;;;;;;;;5034795;28;20203;-86
2023/04/08 04:32:36;;;;;;;10.70;8.83;;;;;;;;;;5034281;28;20303;-86
2023/04/08 04:35:03;;;;;;;10.93;8.60;;;;;;;;;;5035292;28;20227;-86
2023/04/08 04:37:31;;;;;;;10.73;8.67;;;;;;;;;;5034507;28;20241;-86
2023/04/08 04:39:58;;;;;;;9.40;8.07;;;;;;;;;;5032215;28;20198;-85
2023/04/08 04:42:25;;;;;;;11.47;8.73;;;;;;;;;;5034080;28;20722;-86
2023/04/08 04:44:53;;;;;;;10.57;8.60;;;;;;;;;;5035115;28;20308;-86
2023/04/08 04:47:20;;;;;;;12.73;8.47;;;;;;;;;;5034264;28;20231;-86
2023/04/08 04:49:47;;;;;;;10.63;8.50;;;;;;;;;;5034964;28;20213;-86
2023/04/08 04:52:14;;;;;;;11.00;8.90;;;;;;;;;;5034305;28;20234;-85
2023/04/08 04:54:43;;;;;;;11.77;8.57;;;;;;;;;;5034673;28;20279;-86
2023/04/08 04:57:10;;;;;;;9.60;8.47;;;;;;;;;;5033193;28;20235;-86
2023/04/08 04:59:37;;;;;;;9.80;8.23;;;;;;;;;;5034464;28;20667;-86
2023/04/08 05:02:05;;;;;;;10.63;8.57;;;;;;;;;;5018027;28;20242;-86
2023/04/08 05:04:32;;;;;;;10.13;9.00;;;;;;;;;;5034460;28;20231;-86
2023/04/08 05:06:59;;;;;;;10.10;8.53;;;;;;;;;;5034082;28;20329;-85
2023/04/08 05:09:26;;;;;;;10.23;8.73;;;;;;;;;;5034451;28;20210;-86
2023/04/08 05:11:55;;;;;;;10.30;8.87;;;;;;;;;;5033563;28;20238;-86
2023/04/08 05:14:22;;;;;;;10.67;8.63;;;;;;;;;;5034433;28;20276;-86
2023/04/08 05:16:49;;;;;;;10.97;9.03;;;;;;;;;;5033698;28;20227;-86
2023/04/08 05:19:16;;;;;;;10.13;8.43;;;;;;;;;;5034551;28;20205;-86
2023/04/08 05:21:43;;;;;;;11.17;9.00;;;;;;;;;;5033687;28;20234;-86
2023/04/08 05:24:10;;;;;;;10.90;8.60;;;;;;;;;;5034440;28;20226;-86
2023/04/08 05:26:37;;;;;;;10.83;8.63;;;;;;;;;;5034214;28;20234;-86
2023/04/08 05:29:06;;;;;;;12.10;9.40;;;;;;;;;;5034606;28;20206;-86
2023/04/08 05:31:33;;;;;;;10.70;8.63;;;;;;;;;;5033509;28;20246;-86
2023/04/08 05:34:00;;;;;;;13.43;9.60;;;;;;;;;;5033900;28;20237;-86
2023/04/08 05:36:27;;;;;;;9.80;8.60;;;;;;;;;;5033606;28;20256;-86
2023/04/08 05:38:54;;;;;;;10.80;9.23;;;;;;;;;;5034186;28;20211;-86
2023/04/08 05:41:21;;;;;;;10.30;9.20;;;;;;;;;;5033476;28;20705;-86
2023/04/08 05:43:48;;;;;;;12.80;10.00;;;;;;;;;;5033877;28;20228;-86
2023/04/08 05:46:17;;;;;;;10.63;9.20;;;;;;;;;;5033603;28;20244;-85
2023/04/08 05:48:44;;;;;;;14.27;10.03;;;;;;;;;;5034000;28;20199;-86
2023/04/08 05:51:14;;;;;;;10.40;9.30;;;;;;;;;;5033125;28;20230;-86
2023/04/08 05:53:41;;;;;;;12.97;10.03;;;;;;;;;;5033987;28;20552;-86
2023/04/08 05:56:08;;;;;;;12.93;9.77;;;;;;;;;;5033224;28;20226;-86
2023/04/08 05:58:35;;;;;;;12.23;9.83;;;;;;;;;;5034019;28;20216;-86
2023/04/08 06:01:02;;;;;;;12.80;10.43;;;;;;;;;;5033296;28;20229;-87
2023/04/08 06:03:32;;;;;;;13.73;10.87;;;;;;;;;;5033552;28;20211;-87
2023/04/08 06:06:00;;;;;;;12.77;10.53;;;;;;;;;;5033099;28;20236;-87
2023/04/08 06:08:27;;;;;;;14.53;11.33;;;;;;;;;;5033110;28;20708;-86
2023/04/08 06:10:54;;;;;;;14.53;10.60;;;;;;;;;;5033051;28;20199;-87
2023/04/08 06:13:21;;;;;;;13.63;10.63;;;;;;;;;;5033228;28;20303;-86
2023/04/08 06:15:49;;;;;;;13.53;10.40;;;;;;;;;;5033091;28;20673;-88
2023/04/08 06:18:16;;;;;;;13.77;10.10;;;;;;;;;;5033927;28;20573;-86
2023/04/08 06:20:43;;;;;;;14.27;10.83;;;;;;;;;;5032877;28;20217;-88
2023/04/08 06:23:11;;;;;;;15.03;10.50;;;;;;;;;;5033457;28;20203;-87
2023/04/08 06:25:38;;;;;;;13.80;11.13;;;;;;;;;;5033133;28;20224;-88
2023/04/08 06:28:16;;;;;;;11.73;10.10;;;;;;;;;;5026918;28;20212;-86
2023/04/08 06:30:43;;;;;;;10.63;9.43;;;;;;;;;;5032301;28;20214;-87
2023/04/08 06:33:10;;;;;;;13.17;9.53;;;;;;;;;;5013947;28;20591;-87
2023/04/08 06:35:37;;;;;;;10.73;9.33;;;;;;;;;;5013561;28;20686;-87
2023/04/08 06:38:05;;;;;;;13.27;10.67;;;;;;;;;;5013093;28;20233;-86
2023/04/08 06:40:33;;;;;;;13.47;10.47;;;;;;;;;;5014054;28;20245;-87
2023/04/08 06:43:00;;;;;;;11.23;9.40;;;;;;;;;;5032392;28;20238;-86
2023/04/08 06:45:27;;;;;;;12.73;10.57;;;;;;;;;;5033580;28;20222;-88
2023/04/08 06:47:55;;;;;;;12.53;10.13;;;;;;;;;;5032553;28;20240;-88
2023/04/08 06:50:22;;;;;;;12.33;9.93;;;;;;;;;;5033757;28;20231;-88
2023/04/08 06:52:50;;;;;;;13.73;10.03;;;;;;;;;;5014781;28;20249;-88
2023/04/08 06:55:17;;;;;;;12.53;10.23;;;;;;;;;;5013652;28;20231;-88
2023/04/08 06:57:46;;;;;;;13.70;11.43;;;;;;;;;;5013028;28;20258;-88
2023/04/08 07:00:13;;;;;;;12.93;10.33;;;;;;;;;;5013235;28;20203;-87
2023/04/08 07:02:49;;;;;;;13.53;9.80;;;;;;;;;;5013135;28;20247;-87
2023/04/08 07:05:17;;;;;;;11.13;9.70;;;;;;;;;;5013265;28;20237;-89
2023/04/08 07:07:44;;;;;;;13.13;10.27;;;;;;;;;;5013054;28;20235;-88
2023/04/08 07:10:11;;;;;;;11.97;10.03;;;;;;;;;;5013748;28;20220;-88
2023/04/08 07:12:38;;;;;;;13.00;9.83;;;;;;;;;;5012691;28;20246;-88
2023/04/08 07:15:07;;;;;;;12.33;10.47;;;;;;;;;;5012868;28;20235;-87
2023/04/08 07:17:34;;;;;;;12.87;9.97;;;;;;;;;;5012123;28;20254;-87
2023/04/08 07:20:01;;;;;;;12.67;10.10;;;;;;;;;;5014569;28;20211;-87
2023/04/08 07:22:28;;;;;;;10.70;9.13;;;;;;;;;;5031801;28;20745;-86
2023/04/08 07:24:56;;;;;;;10.80;9.40;;;;;;;;;;5037035;28;20233;-86
2023/04/08 07:27:23;;;;;;;13.23;9.60;;;;;;;;;;5036546;28;20230;-86
2023/04/08 07:29:53;;;;;;;10.40;8.70;;;;;;;;;;5036755;28;20218;-86
2023/04/08 07:32:23;;;;;;;12.60;9.33;;;;;;;;;;5036765;28;20234;-87
2023/04/08 07:34:52;;;;;;;10.40;8.97;;;;;;;;;;5037384;28;20237;-87
2023/04/08 07:37:19;;;;;;;10.23;7.60;;;;;;;;;;5036483;28;20725;-85
2023/04/08 07:39:46;;;;;;;9.97;8.27;;;;;;;;;;5036657;28;20203;-87
2023/04/08 07:42:13;;;;;;;10.00;8.70;;;;;;;;;;5035811;28;20258;-86
2023/04/08 07:44:46;;;;;;;9.10;7.83;;;;;;;;;;5036523;28;20230;-86
2023/04/08 07:47:13;;;;;;;8.73;7.77;;;;;;;;;;5035558;28;20230;-86
2023/04/08 07:49:41;;;;;;;10.50;7.80;;;;;;;;;;5036206;28;20206;-84
2023/04/08 07:52:08;;;;;;;11.00;8.17;;;;;;;;;;5035970;28;20237;-87
2023/04/08 07:54:35;;;;;;;10.33;8.20;;;;;;;;;;5029234;28;20230;-88
2023/04/08 07:57:05;;;;;;;10.13;7.60;;;;;;;;;;5034774;28;20234;-88
2023/04/08 07:59:32;;;;;;;9.83;7.10;;;;;;;;;;5036521;28;20209;-86
2023/04/08 08:01:59;;;;;;;9.37;8.37;;;;;;;;;;5033543;28;20239;-85
2023/04/08 08:04:26;;;;;;;8.20;7.40;;;;;;;;;;5032335;28;20249;-85
2023/04/08 08:06:56;;;;;;;8.27;7.37;;;;;;;;;;5028879;28;20269;-85
2023/04/08 08:09:23;;;;;;;7.63;6.87;;;;;;;;;;5035026;28;20191;-85
2023/04/08 08:11:50;;;;;;;9.20;7.87;;;;;;;;;;5029963;28;20222;-85
2023/04/08 08:14:21;;;;;;;9.53;7.00;;;;;;;;;;5034577;28;20234;-86
2023/04/08 08:16:49;;;;;;;9.10;7.13;;;;;;;;;;5034376;28;20296;-86
2023/04/08 08:19:16;;;;;;;8.30;6.90;;;;;;;;;;5035269;28;20298;-89
2023/04/08 08:21:43;;;;;;;8.37;7.20;;;;;;;;;;5034823;28;20227;-86
2023/04/08 08:24:11;;;;;;;12.33;6.93;;;;;;;;;;5034877;28;20269;-89
2023/04/08 08:26:39;;;;;;;7.30;6.43;;;;;;;;;;5026458;28;20231;-88
2023/04/08 08:29:07;;;;;;;8.60;6.87;;;;;;;;;;5015569;28;20231;-88
2023/04/08 08:31:34;;;;;;;7.40;6.70;;;;;;;;;;5014695;28;20229;-88
2023/04/08 08:34:01;;;;;;;10.73;6.23;;;;;;;;;;5015599;28;20239;-88
2023/04/08 08:36:28;;;;;;;8.90;7.07;;;;;;;;;;5022371;28;20245;-90
2023/04/08 08:38:55;;;;;;;9.03;6.53;;;;;;;;;;5035580;28;20198;-85
2023/04/08 08:41:24;;;;;;;7.93;7.07;;;;;;;;;;5034700;28;20238;-87
2023/04/08 08:43:51;;;;;;;8.67;7.57;;;;;;;;;;5034292;28;20234;-87
2023/04/08 08:46:18;;;;;;;7.97;6.47;;;;;;;;;;5029050;28;20235;-89
2023/04/08 08:48:45;;;;;;;7.00;6.30;;;;;;;;;;5015389;28;20207;-86
2023/04/08 08:51:13;;;;;;;7.60;6.80;;;;;;;;;;5014706;28;20951;-88
2023/04/08 08:53:43;;;;;;;7.20;6.50;;;;;;;;;;5014915;28;20231;-87
2023/04/08 08:56:11;;;;;;;8.17;6.87;;;;;;;;;;5014585;28;20258;-86
2023/04/08 08:58:39;;;;;;;7.47;6.33;;;;;;;;;;5002817;28;20251;-86
2023/04/08 09:01:22;;;;;;;7.10;6.40;;;;;;;;;;4998878;28;20778;-87
2023/04/08 09:04:06;;;;;;;7.03;6.33;;;;;;;;;;5013878;28;20231;-87
2023/04/08 09:06:33;;;;;;;8.50;6.80;;;;;;;;;;5014320;28;20648;-86
2023/04/08 09:09:01;;;;;;;8.50;7.10;;;;;;;;;;5025254;28;20211;-86
2023/04/08 09:11:28;;;;;;;7.70;6.53;;;;;;;;;;5033682;28;20234;-87
2023/04/08 09:13:57;;;;;;;7.67;6.87;;;;;;;;;;5029104;28;20234;-87
2023/04/08 09:16:25;;;;;;;7.60;6.80;;;;;;;;;;5034058;28;20733;-87
2023/04/08 09:18:52;;;;;;;9.27;6.63;;;;;;;;;;5034730;28;20213;-89
2023/04/08 09:21:23;;;;;;;7.40;6.70;;;;;;;;;;5020148;28;20238;-87
2023/04/08 09:23:50;;;;;;;6.53;5.80;;;;;;;;;;5031359;28;20567;-86
2023/04/08 09:26:18;;;;;;;7.03;6.33;;;;;;;;;;5032550;28;20234;-86
2023/04/08 09:28:58;;;;;;;9.33;6.60;;;;;;;;;;5033924;28;20272;-85
2023/04/08 09:31:28;;;;;;;8.30;6.63;;;;;;;;;;5033296;28;20257;-85
2023/04/08 09:33:56;;;;;;;7.10;6.30;;;;;;;;;;5032819;28;20237;-86
2023/04/08 09:36:25;;;;;;;7.73;6.93;;;;;;;;;;5033930;28;20241;-86
2023/04/08 09:38:53;;;;;;;8.33;6.77;;;;;;;;;;5028563;28;20293;-86
2023/04/08 09:41:22;;;;;;;10.37;6.77;;;;;;;;;;5014396;28;20273;-86
2023/04/08 09:43:50;;;;;;;9.60;6.23;;;;;;;;;;5013751;28;20432;-86
2023/04/08 09:46:18;;;;;;;7.30;6.60;;;;;;;;;;5014381;28;20327;-85
2023/04/08 09:48:55;;;;;;;9.33;7.10;;;;;;;;;;5031774;28;20203;-87
2023/04/08 09:51:24;;;;;;;7.80;6.50;;;;;;;;;;5023541;28;20231;-87
2023/04/08 09:53:56;;;;;;;7.97;6.50;;;;;;;;;;5016028;28;20226;-85
2023/04/08 09:56:23;;;;;;;7.40;6.70;;;;;;;;;;5019685;28;20264;-88
2023/04/08 09:58:52;;;;;;;6.90;6.13;;;;;;;;;;5037989;28;20230;-87
2023/04/08 10:01:23;;;;;;;8.03;6.20;;;;;;;;;;5037385;28;20234;-88
2023/04/08 10:03:53;;;;;;;6.57;5.90;;;;;;;;;;5036352;28;20317;-86
2023/04/08 10:06:22;;;;;;;8.57;5.77;;;;;;;;;;5034355;28;20226;-86
2023/04/08 10:08:50;;;;;;;6.07;5.47;;;;;;;;;;5035273;28;20203;-87
2023/04/08 10:11:17;;;;;;;7.43;6.03;;;;;;;;;;5020182;28;20288;-86
2023/04/08 10:13:45;;;;;;;8.03;5.83;;;;;;;;;;5014085;28;20227;-85
2023/04/08 10:16:23;;;;;;;6.80;5.90;;;;;;;;;;5014681;28;20242;-85
2023/04/08 10:18:54;;;;;;;6.53;5.60;;;;;;;;;;5014860;28;20239;-85
2023/04/08 10:21:35;;;;;;;7.97;5.87;;;;;;;;;;5015655;28;20313;-86
2023/04/08 10:24:05;;;;;;;7.10;5.80;;;;;;;;;;5014333;28;20679;-84
2023/04/08 10:26:36;;;;;;;8.30;6.53;;;;;;;;;;5013236;28;20247;-85
2023/04/08 10:29:23;;;;;;;6.97;5.70;;;;;;;;;;5013919;28;20225;-86
2023/04/08 10:31:50;;;;;;;6.23;5.30;;;;;;;;;;5012369;28;20235;-84
2023/04/08 10:34:17;;;;;;;5.90;5.40;;;;;;;;;;5012688;28;20227;-85
2023/04/08 10:36:46;;;;;;;5.80;5.20;;;;;;;;;;5015472;28;20231;-85
2023/04/08 10:39:14;;;;;;;6.23;5.63;;;;;;;;;;5013851;28;20218;-86
2023/04/08 10:41:44;;;;;;;7.63;5.00;;;;;;;;;;5012820;28;20258;-86
2023/04/08 10:44:17;;;;;;;8.20;4.97;;;;;;;;;;5013803;28;20220;-86
2023/04/08 10:46:45;;;;;;;6.17;4.47;;;;;;;;;;5012556;28;20266;-86
2023/04/08 10:49:15;;;;;;;5.63;4.13;;;;;;;;;;5013510;28;20837;-86
2023/04/08 10:51:43;;;;;;;5.27;4.40;;;;;;;;;;5012049;28;20326;-85
2023/04/08 10:54:16;;;;;;;4.13;3.37;;;;;;;;;;5013978;28;20227;-85
2023/04/08 10:56:49;;;;;;;7.50;4.90;;;;;;;;;;5023416;28;20237;-85
2023/04/08 10:59:18;;;;;;;5.53;4.87;;;;;;;;;;5004649;28;20556;-85
2023/04/08 11:01:47;;;;;;;5.33;4.73;;;;;;;;;;4997223;28;20319;-86
2023/04/08 11:04:15;;;;;;;6.17;4.83;;;;;;;;;;4997601;28;20228;-88
2023/04/08 11:06:43;;;;;;;5.70;4.70;;;;;;;;;;4997318;28;20231;-87
2023/04/08 11:09:11;;;;;;;5.93;5.27;;;;;;;;;;4998255;28;20216;-86
2023/04/08 11:11:42;;;;;;;8.17;5.30;;;;;;;;;;4996149;28;20241;-86
2023/04/08 11:14:10;;;;;;;5.97;4.97;;;;;;;;;;5015265;28;20256;-86
2023/04/08 11:16:44;;;;;;;7.03;5.10;;;;;;;;;;5044215;28;20233;-87
2023/04/08 11:19:14;;;;;;;7.13;4.73;;;;;;;;;;5037507;28;20198;-85
2023/04/08 11:21:42;;;;;;;6.77;5.23;;;;;;;;;;5039311;28;21231;-85
2023/04/08 11:24:12;;;;;;;6.23;4.67;;;;;;;;;;5025896;28;20310;-85
2023/04/08 11:26:41;;;;;;;5.53;4.77;;;;;;;;;;5028085;28;20234;-85
2023/04/08 11:29:11;;;;;;;6.77;4.47;;;;;;;;;;5031813;28;20215;-84
2023/04/08 11:31:38;;;;;;;5.73;4.30;;;;;;;;;;5026742;28;20251;-84
2023/04/08 11:34:06;;;;;;;5.80;4.50;;;;;;;;;;5016155;28;20251;-85
2023/04/08 11:36:35;;;;;;;5.97;4.90;;;;;;;;;;5015857;28;20239;-85
2023/04/08 11:39:07;;;;;;;8.43;4.87;;;;;;;;;;5016438;28;20246;-84
2023/04/08 11:41:38;;;;;;;6.83;5.10;;;;;;;;;;5015463;28;20648;-85
2023/04/08 11:44:06;;;;;;;7.77;5.43;;;;;;;;;;5014883;28;20310;-86
2023/04/08 11:46:34;;;;;;;7.10;5.00;;;;;;;;;;5014254;28;20242;-81
2023/04/08 11:49:02;;;;;;;6.17;4.73;;;;;;;;;;5014507;28;20289;-80
2023/04/08 11:51:29;;;;;;;6.67;4.90;;;;;;;;;;5013962;28;20238;-80
2023/04/08 11:53:56;;;;;;;5.23;4.70;;;;;;;;;;5013906;28;20766;-80
2023/04/08 11:56:24;;;;;;;6.00;4.83;;;;;;;;;;5014199;28;20341;-82
2023/04/08 11:58:56;;;;;;;7.03;4.87;;;;;;;;;;5015601;28;20586;-87
2023/04/08 12:01:25;;;;;;;5.40;4.90;;;;;;;;;;5011118;28;20227;-86
2023/04/08 12:03:59;;;;;;;5.40;4.50;;;;;;;;;;5015464;28;20711;-87
2023/04/08 12:06:27;;;;;;;5.50;4.53;;;;;;;;;;5014915;28;20230;-85
2023/04/08 12:08:54;;;;;;;5.00;4.50;;;;;;;;;;5014623;28;20196;-85
2023/04/08 12:11:21;;;;;;;5.50;4.83;;;;;;;;;;5014762;28;20235;-86
2023/04/08 12:13:49;;;;;;;8.23;5.33;;;;;;;;;;5014987;28;20231;-84
2023/04/08 12:16:16;;;;;;;5.20;4.37;;;;;;;;;;5014671;28;20235;-84
2023/04/08 12:18:45;;;;;;;5.27;4.73;;;;;;;;;;5014505;28;20211;-85
2023/04/08 12:21:12;;;;;;;5.33;4.80;;;;;;;;;;5014108;28;20778;-83
2023/04/08 12:23:39;;;;;;;4.63;4.23;;;;;;;;;;5014462;28;20226;-89
2023/04/08 12:26:06;;;;;;;4.93;4.47;;;;;;;;;;5018206;28;20243;-87
2023/04/08 12:28:36;;;;;;;7.83;4.60;;;;;;;;;;5035095;28;20250;-86
2023/04/08 12:31:03;;;;;;;7.63;4.67;;;;;;;;;;5034601;28;20241;-87
2023/04/08 12:33:30;;;;;;;4.50;4.07;;;;;;;;;;5035082;28;20242;-86
2023/04/08 12:35:59;;;;;;;5.30;4.30;;;;;;;;;;5014872;28;20325;-86
2023/04/08 12:38:26;;;;;;;6.03;4.50;;;;;;;;;;5014949;28;20563;-86
2023/04/08 12:40:53;;;;;;;4.28;3.88;;;;;;;;;;5024504;28;20656;-85
2023/04/08 12:43:20;;;;;;;5.05;4.43;;;;;;;;;;5034452;28;20213;-86
2023/04/08 12:45:48;;;;;;;4.45;4.00;;;;;;;;;;5030400;28;20227;-85
2023/04/08 12:48:15;;;;;;;4.93;4.15;;;;;;;;;;5015326;28;20577;-85
2023/04/08 12:50:42;;;;;;;5.38;4.45;;;;;;;;;;5014373;28;20211;-86
2023/04/08 12:53:11;;;;;;;4.15;3.63;;;;;;;;;;5014281;28;20196;-86
2023/04/08 12:55:38;;;;;;;5.00;4.47;;;;;;;;;;5013714;28;20230;-87
2023/04/08 12:58:05;;;;;;;5.10;4.60;;;;;;;;;;5015678;28;20214;-85
2023/04/08 13:00:32;;;;;;;5.80;4.80;;;;;;;;;;5016927;28;20567;-86
2023/04/08 13:02:59;;;;;;;5.03;4.20;;;;;;;;;;5034091;28;20238;-86
2023/04/08 13:05:26;;;;;;;4.63;4.20;;;;;;;;;;5033115;28;20233;-83
2023/04/08 13:07:53;;;;;;;7.07;4.20;;;;;;;;;;5013210;28;20255;-85
2023/04/08 13:10:22;;;;;;;6.80;4.20;;;;;;;;;;5013639;28;20203;-82
2023/04/08 13:12:49;;;;;;;4.82;4.18;;;;;;;;;;5030271;28;20234;-82
2023/04/08 13:15:16;;;;;;;4.50;4.10;;;;;;;;;;5014698;28;20231;-86
2023/04/08 13:17:45;;;;;;;4.35;3.95;;;;;;;;;;5029991;28;20231;-88
2023/04/08 13:20:14;;;;;;;4.75;4.28;;;;;;;;;;5035442;28;20206;-87
2023/04/08 13:22:41;;;;;;;7.45;4.10;;;;;;;;;;5032041;28;20608;-88
2023/04/08 13:25:08;;;;;;;4.13;3.58;;;;;;;;;;5034852;28;20219;-88
2023/04/08 13:27:37;;;;;;;4.18;3.85;;;;;;;;;;5033886;28;20237;-88
2023/04/08 13:30:04;;;;;;;4.97;4.45;;;;;;;;;;5025920;28;20661;-87
2023/04/08 13:32:31;;;;;;;4.95;4.45;;;;;;;;;;5016962;28;20246;-87
2023/04/08 13:34:58;;;;;;;4.82;4.38;;;;;;;;;;5015647;28;20746;-88
2023/04/08 13:37:26;;;;;;;6.35;4.00;;;;;;;;;;5014778;28;20235;-87
2023/04/08 13:39:53;;;;;;;5.40;4.03;;;;;;;;;;5025779;28;20214;-88
2023/04/08 13:42:20;;;;;;;5.18;4.07;;;;;;;;;;5028321;28;20239;-87
2023/04/08 13:44:48;;;;;;;5.85;4.25;;;;;;;;;;5025984;28;20222;-87
2023/04/08 13:47:16;;;;;;;4.88;4.38;;;;;;;;;;5024138;28;20235;-86
2023/04/08 13:49:43;;;;;;;5.30;4.55;;;;;;;;;;5016379;28;20199;-87
2023/04/08 13:52:19;;;;;;;4.82;4.30;;;;;;;;;;5023676;28;20239;-86
2023/04/08 13:54:46;;;;;;;5.40;4.72;;;;;;;;;;5015126;28;20227;-90
2023/04/08 13:57:15;;;;;;;8.25;4.07;;;;;;;;;;5016242;28;20246;-88
2023/04/08 13:59:45;;;;;;;4.70;4.18;;;;;;;;;;5013742;28;20227;-88
2023/04/08 14:02:14;;;;;;;5.30;4.80;;;;;;;;;;5017350;28;20258;-88
2023/04/08 14:04:47;;;;;;;4.85;4.30;;;;;;;;;;5016731;28;20238;-89
2023/04/08 14:07:14;;;;;;;5.30;4.57;;;;;;;;;;5016327;28;20239;-89
2023/04/08 14:09:41;;;;;;;5.70;5.10;;;;;;;;;;5015384;28;20214;-88
2023/04/08 14:12:08;;;;;;;6.03;5.07;;;;;;;;;;5014360;28;20242;-88
2023/04/08 14:14:40;;;;;;;5.28;4.78;;;;;;;;;;5014143;28;20234;-87
2023/04/08 14:17:10;;;;;;;5.93;5.32;;;;;;;;;;5014296;28;20251;-87
2023/04/08 14:19:38;;;;;;;6.57;5.50;;;;;;;;;;5014106;28;20199;-87
2023/04/08 14:22:05;;;;;;;6.95;5.20;;;;;;;;;;5014170;28;20650;-88
2023/04/08 14:24:33;;;;;;;6.38;5.65;;;;;;;;;;5014869;28;20322;-87
2023/04/08 14:27:00;;;;;;;6.32;4.72;;;;;;;;;;5019129;28;20235;-86
2023/04/08 14:29:34;;;;;;;5.55;4.95;;;;;;;;;;5024750;28;20199;-88
2023/04/08 14:32:01;;;;;;;6.32;5.45;;;;;;;;;;5015876;28;20238;-86
2023/04/08 14:34:28;;;;;;;5.75;5.13;;;;;;;;;;5016948;28;20743;-87
2023/04/08 14:36:56;;;;;;;5.35;4.80;;;;;;;;;;5014121;28;20301;-87
2023/04/08 14:39:23;;;;;;;5.88;5.28;;;;;;;;;;5015357;28;20207;-87
2023/04/08 14:41:50;;;;;;;7.05;5.18;;;;;;;;;;5013530;28;20252;-87
2023/04/08 14:44:17;;;;;;;5.25;4.70;;;;;;;;;;5014271;28;20234;-87